createdAt,value
2023-01-02T00:01:07.418Z,13.56
2023-01-02T00:03:34.086Z,13.57
2023-01-02T00:06:08.338Z,13.50
2023-01-02T00:08:34.968Z,13.54
2023-01-02T00:11:01.517Z,13.47
2023-01-02T00:13:27.997Z,13.43
2023-01-02T00:15:54.553Z,13.36
2023-01-02T00:18:21.077Z,13.42
2023-01-02T00:20:47.590Z,13.43
2023-01-02T00:23:14.040Z,13.36
2023-01-02T00:25:44.438Z,13.33
2023-01-02T00:28:10.934Z,13.34
2023-01-02T00:30:38.989Z,13.35
2023-01-02T00:33:06.869Z,13.39
2023-01-02T00:35:33.911Z,13.41
2023-01-02T00:38:00.411Z,13.46
2023-01-02T00:40:28.884Z,13.46
2023-01-02T00:42:55.343Z,13.52
2023-01-02T00:45:21.826Z,13.53
2023-01-02T00:47:48.319Z,13.57
2023-01-02T00:50:15.205Z,13.63
2023-01-02T00:52:41.694Z,13.55
2023-01-02T00:55:12.116Z,13.55
2023-01-02T00:57:39.084Z,13.53
2023-01-02T01:00:06.814Z,13.53
2023-01-02T01:02:36.884Z,13.51
2023-01-02T01:05:03.613Z,13.45
2023-01-02T01:07:30.194Z,13.43
2023-01-02T01:09:56.687Z,13.43
2023-01-02T01:12:23.211Z,13.41
2023-01-02T01:14:49.698Z,13.45
2023-01-02T01:17:16.158Z,13.45
2023-01-02T01:19:42.673Z,13.42
2023-01-02T01:22:14.443Z,13.46
2023-01-02T01:24:44.103Z,13.48
2023-01-02T01:27:10.555Z,13.56
2023-01-02T01:29:37.057Z,13.54
2023-01-02T01:32:03.675Z,13.52
2023-01-02T01:34:30.176Z,13.52
2023-01-02T01:37:01.055Z,13.52
2023-01-02T01:39:31.331Z,13.56
2023-01-02T01:42:01.815Z,13.61
2023-01-02T01:44:46.985Z,13.63
2023-01-02T01:47:39.065Z,13.68
2023-01-02T01:50:26.939Z,13.71
2023-01-02T01:53:02.942Z,13.62
2023-01-02T01:55:43.853Z,13.56
2023-01-02T01:58:23.006Z,13.61
2023-01-02T02:00:51.688Z,13.67
2023-01-02T02:03:21.997Z,13.70
2023-01-02T02:05:49.140Z,13.68
2023-01-02T02:08:37.511Z,13.72
2023-01-02T02:11:04.592Z,13.74
2023-01-02T02:13:33.022Z,13.75
2023-01-02T02:16:28.538Z,13.73
2023-01-02T02:19:37.021Z,13.74
2023-01-02T02:22:40.883Z,13.79
2023-01-02T02:25:41.525Z,13.75
2023-01-02T02:28:26.633Z,13.70
2023-01-02T02:30:59.048Z,13.65
2023-01-02T02:33:52.127Z,13.75
2023-01-02T02:36:26.817Z,13.72
2023-01-02T02:38:58.648Z,13.68
2023-01-02T02:41:36.036Z,13.77
2023-01-02T02:44:21.114Z,13.70
2023-01-02T02:47:01.717Z,13.73
2023-01-02T02:49:41.992Z,13.74
2023-01-02T02:52:24.723Z,13.72
2023-01-02T02:55:03.562Z,13.83
2023-01-02T02:57:31.746Z,13.80
2023-01-02T02:59:58.411Z,13.79
2023-01-02T03:02:25.114Z,13.74
2023-01-02T03:05:02.724Z,13.78
2023-01-02T03:07:53.623Z,13.80
2023-01-02T03:10:26.713Z,13.77
2023-01-02T03:12:53.131Z,13.70
2023-01-02T03:15:30.961Z,13.78
2023-01-02T03:18:25.961Z,13.78
2023-01-02T03:21:10.325Z,13.75
2023-01-02T03:23:43.394Z,13.79
2023-01-02T03:26:13.179Z,13.80
2023-01-02T03:28:44.645Z,13.84
2023-01-02T03:31:19.849Z,13.79
2023-01-02T03:33:54.665Z,13.71
2023-01-02T03:36:27.937Z,13.72
2023-01-02T03:39:18.980Z,13.69
2023-01-02T03:42:10.124Z,13.66
2023-01-02T03:44:42.925Z,13.63
2023-01-02T03:47:27.487Z,13.64
2023-01-02T03:49:57.092Z,13.66
2023-01-02T03:52:26.155Z,13.67
2023-01-02T03:54:54.650Z,13.69
2023-01-02T03:57:57.521Z,13.69
2023-01-02T04:00:32.697Z,13.67
2023-01-02T04:03:17.635Z,13.66
2023-01-02T04:06:00.143Z,13.70
2023-01-02T04:08:34.601Z,13.66
2023-01-02T04:11:03.641Z,13.60
2023-01-02T04:13:37.476Z,13.67
2023-01-02T04:16:07.549Z,13.61
2023-01-02T04:18:46.204Z,13.65
2023-01-02T04:21:21.773Z,13.62
2023-01-02T04:23:53.382Z,13.57
2023-01-02T04:26:45.775Z,13.60
2023-01-02T04:29:12.660Z,13.59
2023-01-02T04:31:48.617Z,13.68
2023-01-02T04:34:17.204Z,13.70
2023-01-02T04:36:44.293Z,13.65
2023-01-02T04:39:10.851Z,13.66
2023-01-02T04:41:39.024Z,13.66
2023-01-02T04:44:05.931Z,13.70
2023-01-02T04:46:32.622Z,13.75
2023-01-02T04:48:59.167Z,13.80
2023-01-02T04:51:26.011Z,13.78
2023-01-02T04:53:53.413Z,13.75
2023-01-02T04:56:21.000Z,13.74
2023-01-02T04:58:48.448Z,13.75
2023-01-02T05:01:17.504Z,13.81
2023-01-02T05:03:46.670Z,13.81
2023-01-02T05:06:13.968Z,13.78
2023-01-02T05:08:41.194Z,13.74
2023-01-02T05:11:09.832Z,13.74
2023-01-02T05:13:36.369Z,13.70
2023-01-02T05:16:03.884Z,13.71
2023-01-02T05:18:31.629Z,13.69
2023-01-02T05:21:06.838Z,13.71
2023-01-02T05:23:51.182Z,13.77
2023-01-02T05:26:18.481Z,13.75
2023-01-02T05:28:48.180Z,13.81
2023-01-02T05:31:15.031Z,13.79
2023-01-02T05:33:47.169Z,13.81
2023-01-02T05:36:13.608Z,13.75
2023-01-02T05:38:40.103Z,13.71
2023-01-02T05:41:07.868Z,13.70
2023-01-02T05:43:36.670Z,13.70
2023-01-02T05:46:13.442Z,13.72
2023-01-02T05:48:40.874Z,13.71
2023-01-02T05:51:09.998Z,13.69
2023-01-02T05:53:37.407Z,13.67
2023-01-02T05:56:15.160Z,13.64
2023-01-02T05:58:44.580Z,13.64
2023-01-02T06:01:14.498Z,13.64
2023-01-02T06:03:45.558Z,13.67
2023-01-02T06:06:12.663Z,13.70
2023-01-02T06:08:39.463Z,13.69
2023-01-02T06:11:06.866Z,13.73
2023-01-02T06:13:35.619Z,13.70
2023-01-02T06:16:02.975Z,13.68
2023-01-02T06:18:32.153Z,13.70
2023-01-02T06:20:59.982Z,13.68
2023-01-02T06:23:26.890Z,13.67
2023-01-02T06:25:53.442Z,13.65
2023-01-02T06:28:20.465Z,13.67
2023-01-02T06:30:47.024Z,13.67
2023-01-02T06:33:13.579Z,13.72
2023-01-02T06:35:40.025Z,13.73
2023-01-02T06:38:06.965Z,13.74
2023-01-02T06:40:33.445Z,13.71
2023-01-02T06:43:00.426Z,13.74
2023-01-02T06:45:27.127Z,13.75
2023-01-02T06:47:58.365Z,13.81
2023-01-02T06:50:28.603Z,13.80
2023-01-02T06:52:59.432Z,13.76
2023-01-02T06:55:41.897Z,13.79
2023-01-02T06:58:19.364Z,13.78
2023-01-02T07:00:54.050Z,13.82
2023-01-02T07:03:20.578Z,13.82
2023-01-02T07:05:47.073Z,13.90
2023-01-02T07:08:13.867Z,13.88
2023-01-02T07:10:40.424Z,13.88
2023-01-02T07:13:06.903Z,13.83
2023-01-02T07:15:33.604Z,13.87
2023-01-02T07:18:00.102Z,13.89
2023-01-02T07:20:26.609Z,13.86
2023-01-02T07:22:53.931Z,14.02
2023-01-02T07:25:21.944Z,13.94
2023-01-02T07:27:48.447Z,14.02
2023-01-02T07:30:15.082Z,13.97
2023-01-02T07:32:41.629Z,13.95
2023-01-02T07:35:08.638Z,14.02
2023-01-02T07:37:35.107Z,14.01
2023-01-02T07:40:01.563Z,13.95
2023-01-02T07:42:28.215Z,13.98
2023-01-02T07:44:54.733Z,13.94
2023-01-02T07:47:21.230Z,14.02
2023-01-02T07:49:47.871Z,14.12
2023-01-02T07:52:14.330Z,14.12
2023-01-02T07:54:40.889Z,14.08
2023-01-02T07:57:07.346Z,14.02
2023-01-02T07:59:33.836Z,14.04
2023-01-02T08:02:00.479Z,14.14
2023-01-02T08:04:27.689Z,14.14
2023-01-02T08:06:54.241Z,14.13
2023-01-02T08:09:21.025Z,14.14
2023-01-02T08:11:47.512Z,14.18
2023-01-02T08:14:17.089Z,14.16
2023-01-02T08:16:48.219Z,14.08
2023-01-02T08:19:14.683Z,14.15
2023-01-02T08:21:43.712Z,14.16
2023-01-02T08:24:10.209Z,14.19
2023-01-02T08:26:36.689Z,14.17
2023-01-02T08:29:03.322Z,14.16
2023-01-02T08:31:33.287Z,14.19
2023-01-02T08:34:00.926Z,14.19
2023-01-02T08:36:27.594Z,14.20
2023-01-02T08:38:54.076Z,14.22
2023-01-02T08:41:38.217Z,14.21
2023-01-02T08:44:05.848Z,14.20
2023-01-02T08:46:38.593Z,14.21
2023-01-02T08:49:08.644Z,14.24
2023-01-02T08:51:35.118Z,14.24
2023-01-02T08:54:01.703Z,14.24
2023-01-02T08:56:32.832Z,14.34
2023-01-02T08:59:03.746Z,14.32
2023-01-02T09:01:31.619Z,14.28
2023-01-02T09:03:59.263Z,14.27
2023-01-02T09:06:27.558Z,14.20
2023-01-02T09:08:56.597Z,14.20
2023-01-02T09:11:28.647Z,14.13
2023-01-02T09:13:55.763Z,14.11
2023-01-02T09:16:22.897Z,14.09
2023-01-02T09:18:49.894Z,14.08
2023-01-02T09:21:17.071Z,14.10
2023-01-02T09:23:43.908Z,14.14
2023-01-02T09:26:12.257Z,14.16
2023-01-02T09:28:39.026Z,14.21
2023-01-02T09:31:12.018Z,14.19
2023-01-02T09:33:40.471Z,14.19
2023-01-02T09:36:08.818Z,14.18
2023-01-02T09:38:35.344Z,14.21
2023-01-02T09:41:11.029Z,14.19
2023-01-02T09:43:41.850Z,14.17
2023-01-02T09:46:36.122Z,14.15
2023-01-02T09:49:03.977Z,14.20
2023-01-02T09:51:32.436Z,14.25
2023-01-02T09:53:59.184Z,14.24
2023-01-02T09:56:37.217Z,14.34
2023-01-02T09:59:09.647Z,14.40
2023-01-02T10:01:54.759Z,14.39
2023-01-02T10:04:47.532Z,14.25
2023-01-02T10:07:25.716Z,14.16
2023-01-02T10:10:07.442Z,14.14
2023-01-02T10:13:06.179Z,14.12
2023-01-02T10:15:33.373Z,14.13
2023-01-02T10:18:13.982Z,14.14
2023-01-02T10:20:44.741Z,14.22
2023-01-02T10:23:15.018Z,14.23
2023-01-02T10:26:12.625Z,14.24
2023-01-02T10:29:03.626Z,14.21
2023-01-02T10:31:38.714Z,14.24
2023-01-02T10:34:14.563Z,14.23
2023-01-02T10:36:42.992Z,14.32
2023-01-02T10:39:32.439Z,14.36
2023-01-02T10:41:59.910Z,14.36
2023-01-02T10:44:33.640Z,14.33
2023-01-02T10:47:30.401Z,14.28
2023-01-02T10:49:57.194Z,14.27
2023-01-02T10:52:33.236Z,14.33
2023-01-02T10:55:00.980Z,14.43
2023-01-02T10:57:42.756Z,14.47
2023-01-02T11:00:22.527Z,14.47
2023-01-02T11:02:58.648Z,14.45
2023-01-02T11:05:28.355Z,14.46
2023-01-02T11:07:56.024Z,14.49
2023-01-02T11:10:26.628Z,14.45
2023-01-02T11:12:53.196Z,14.52
2023-01-02T11:15:30.878Z,14.53
2023-01-02T11:17:58.439Z,14.51
2023-01-02T11:20:37.631Z,14.59
2023-01-02T11:23:04.704Z,14.55
2023-01-02T11:25:40.813Z,14.54
2023-01-02T11:28:16.953Z,14.54
2023-01-02T11:30:45.578Z,14.47
2023-01-02T11:33:24.228Z,14.43
2023-01-02T11:35:52.643Z,14.36
2023-01-02T11:38:29.840Z,14.38
2023-01-02T11:41:02.408Z,14.32
2023-01-02T11:43:49.019Z,14.28
2023-01-02T11:46:36.803Z,14.25
2023-01-02T11:49:09.211Z,14.25
2023-01-02T11:51:38.612Z,14.19
2023-01-02T11:54:13.611Z,14.13
2023-01-02T11:56:43.568Z,14.12
2023-01-02T11:59:32.351Z,14.11
2023-01-02T12:02:02.243Z,14.11
2023-01-02T12:04:28.872Z,14.16
2023-01-02T12:06:58.094Z,14.19
2023-01-02T12:10:06.471Z,14.16
2023-01-02T12:12:54.703Z,14.20
2023-01-02T12:15:39.518Z,14.09
2023-01-02T12:18:50.794Z,13.93
2023-01-02T12:21:24.346Z,13.60
2023-01-02T12:24:06.470Z,13.15
2023-01-02T12:26:57.296Z,12.83
2023-01-02T12:30:04.318Z,12.66
2023-01-02T12:32:38.272Z,12.43
2023-01-02T12:35:21.533Z,12.34
2023-01-02T12:37:56.105Z,12.16
2023-01-02T12:40:41.057Z,12.09
2023-01-02T12:43:24.499Z,12.02
2023-01-02T12:46:12.894Z,11.93
2023-01-02T12:48:46.203Z,11.90
2023-01-02T12:51:18.067Z,11.86
2023-01-02T12:54:21.059Z,11.84
2023-01-02T12:57:38.205Z,11.85
2023-01-02T13:00:41.780Z,11.78
2023-01-02T13:03:23.185Z,11.79
2023-01-02T13:06:44.866Z,11.75
2023-01-02T13:09:04.287Z,11.71
2023-01-02T13:11:49.422Z,11.73
2023-01-02T13:14:20.032Z,11.71
2023-01-02T13:16:55.571Z,11.69
2023-01-02T13:19:40.019Z,11.67
2023-01-02T13:22:12.607Z,11.65
2023-01-02T13:24:39.362Z,11.67
2023-01-02T13:27:06.291Z,11.63
2023-01-02T13:29:44.195Z,11.59
2023-01-02T13:32:12.623Z,11.57
2023-01-02T13:34:52.372Z,11.59
2023-01-02T13:37:22.003Z,11.55
2023-01-02T13:39:57.897Z,11.53
2023-01-02T13:42:46.531Z,11.54
2023-01-02T13:45:41.806Z,11.51
2023-01-02T13:48:34.059Z,11.53
2023-01-02T13:51:04.789Z,11.53
2023-01-02T13:53:41.664Z,11.44
2023-01-02T13:56:21.527Z,11.39
2023-01-02T13:58:57.565Z,11.39
2023-01-02T14:01:24.259Z,11.29
2023-01-02T14:04:19.106Z,11.22
2023-01-02T14:06:53.927Z,11.23
2023-01-02T14:09:22.751Z,11.19
2023-01-02T14:11:55.495Z,11.13
2023-01-02T14:14:46.802Z,11.09
2023-01-02T14:17:37.257Z,11.09
2023-01-02T14:20:19.094Z,11.07
2023-01-02T14:22:59.968Z,11.05
2023-01-02T14:25:27.036Z,11.02
2023-01-02T14:27:59.811Z,11.04
2023-01-02T14:30:38.618Z,11.00
2023-01-02T14:33:07.695Z,11.00
2023-01-02T14:35:38.788Z,10.98
2023-01-02T14:38:36.051Z,11.01
2023-01-02T14:41:25.627Z,11.02
2023-01-02T14:43:52.243Z,10.99
2023-01-02T14:46:25.715Z,10.96
2023-01-02T14:49:24.936Z,10.95
2023-01-02T14:51:59.112Z,10.96
2023-01-02T14:54:48.719Z,10.95
2023-01-02T14:57:24.132Z,11.02
2023-01-02T14:59:53.536Z,11.02
2023-01-02T15:02:27.129Z,11.02
2023-01-02T15:05:06.399Z,11.00
2023-01-02T15:07:40.153Z,10.98
2023-01-02T15:10:21.541Z,10.98
2023-01-02T15:13:03.913Z,10.97
2023-01-02T15:15:38.625Z,10.99
2023-01-02T15:18:30.795Z,10.97
2023-01-02T15:21:04.836Z,10.97
2023-01-02T15:23:31.579Z,10.98
2023-01-02T15:26:33.136Z,10.96
2023-01-02T15:28:54.948Z,10.93
2023-01-02T15:31:21.753Z,10.86
2023-01-02T15:33:53.882Z,10.89
2023-01-02T15:36:41.460Z,10.86
2023-01-02T15:39:20.840Z,10.81
2023-01-02T15:41:50.071Z,10.79
2023-01-02T15:44:41.545Z,10.77
2023-01-02T15:47:09.429Z,10.73
2023-01-02T15:49:40.681Z,10.75
2023-01-02T15:52:26.432Z,10.75
2023-01-02T15:54:53.684Z,10.74
2023-01-02T15:57:27.709Z,10.73
2023-01-02T15:59:54.719Z,10.76
2023-01-02T16:02:44.278Z,10.77
2023-01-02T16:05:13.231Z,10.75
2023-01-02T16:07:40.448Z,10.74
2023-01-02T16:10:09.298Z,10.74
2023-01-02T16:12:57.785Z,10.78
2023-01-02T16:15:32.118Z,10.73
2023-01-02T16:17:58.730Z,10.73
2023-01-02T16:20:27.188Z,10.68
2023-01-02T16:23:04.730Z,10.67
2023-01-02T16:25:34.163Z,10.61
2023-01-02T16:28:35.271Z,10.61
2023-01-02T16:31:19.048Z,10.64
2023-01-02T16:33:49.079Z,10.65
2023-01-02T16:36:20.543Z,10.69
2023-01-02T16:38:49.777Z,10.70
2023-01-02T16:41:36.525Z,10.69
2023-01-02T16:44:12.451Z,10.68
2023-01-02T16:46:44.039Z,10.69
2023-01-02T16:49:22.401Z,10.67
2023-01-02T16:51:59.019Z,10.64
2023-01-02T16:54:25.503Z,10.64
2023-01-02T16:56:52.139Z,10.64
2023-01-02T16:59:21.409Z,10.65
2023-01-02T17:01:47.966Z,10.62
2023-01-02T17:04:15.569Z,10.64
2023-01-02T17:06:42.046Z,10.61
2023-01-02T17:09:08.533Z,10.61
2023-01-02T17:11:35.077Z,10.62
2023-01-02T17:14:01.837Z,10.64
2023-01-02T17:16:28.518Z,10.59
2023-01-02T17:18:55.103Z,10.57
2023-01-02T17:21:22.533Z,10.58
2023-01-02T17:23:54.858Z,10.58
2023-01-02T17:26:21.479Z,10.55
2023-01-02T17:28:47.966Z,10.59
2023-01-02T17:31:15.203Z,10.63
2023-01-02T17:33:41.843Z,10.63
2023-01-02T17:36:10.902Z,10.59
2023-01-02T17:38:37.407Z,10.58
2023-01-02T17:41:03.976Z,10.55
2023-01-02T17:43:31.059Z,10.59
2023-01-02T17:45:57.573Z,10.56
2023-01-02T17:48:25.218Z,10.55
2023-01-02T17:50:56.203Z,10.52
2023-01-02T17:53:22.743Z,10.49
2023-01-02T17:56:21.158Z,10.49
2023-01-02T17:58:45.345Z,10.48
2023-01-02T18:01:17.630Z,10.41
2023-01-02T18:03:44.742Z,10.37
2023-01-02T18:06:11.545Z,10.33
2023-01-02T18:08:38.746Z,10.31
2023-01-02T18:11:09.718Z,10.25
2023-01-02T18:13:42.210Z,10.20
2023-01-02T18:16:16.627Z,10.20
2023-01-02T18:18:44.718Z,10.11
2023-01-02T18:21:13.499Z,10.06
2023-01-02T18:23:41.393Z,10.04
2023-01-02T18:26:13.424Z,10.03
2023-01-02T18:28:41.596Z,10.01
2023-01-02T18:31:19.008Z,9.94
2023-01-02T18:33:46.388Z,9.94
2023-01-02T18:36:24.757Z,9.89
2023-01-02T18:39:12.142Z,9.88
2023-01-02T18:41:39.866Z,9.88
2023-01-02T18:44:26.657Z,9.87
2023-01-02T18:47:05.217Z,9.81
2023-01-02T18:49:42.342Z,9.82
2023-01-02T18:52:11.769Z,9.74
2023-01-02T18:54:44.665Z,9.78
2023-01-02T18:57:15.469Z,9.75
2023-01-02T18:59:51.841Z,9.72
2023-01-02T19:02:37.033Z,9.71
2023-01-02T19:05:31.192Z,9.70
2023-01-02T19:08:13.153Z,9.67
2023-01-02T19:10:57.607Z,9.72
2023-01-02T19:13:35.108Z,9.72
2023-01-02T19:16:10.050Z,9.63
2023-01-02T19:18:44.546Z,9.56
2023-01-02T19:21:31.097Z,9.56
2023-01-02T19:24:04.545Z,9.56
2023-01-02T19:26:38.460Z,9.53
2023-01-02T19:29:11.195Z,9.51
2023-01-02T19:31:48.503Z,9.48
2023-01-02T19:34:38.862Z,9.49
2023-01-02T19:37:11.450Z,9.51
2023-01-02T19:39:51.505Z,9.51
2023-01-02T19:42:21.897Z,9.57
2023-01-02T19:44:51.001Z,9.57
2023-01-02T19:47:18.632Z,9.51
2023-01-02T19:49:45.630Z,9.56
2023-01-02T19:52:12.536Z,9.56
2023-01-02T19:54:39.934Z,9.55
2023-01-02T19:57:07.973Z,9.54
2023-01-02T19:59:41.707Z,9.53
2023-01-02T20:02:10.257Z,9.55
2023-01-02T20:04:36.861Z,9.51
2023-01-02T20:07:03.536Z,9.51
2023-01-02T20:09:30.067Z,9.52
2023-01-02T20:12:15.148Z,9.54
2023-01-02T20:14:42.441Z,9.51
2023-01-02T20:17:09.788Z,9.53
2023-01-02T20:19:37.051Z,9.51
2023-01-02T20:22:04.231Z,9.46
2023-01-02T20:24:30.792Z,9.46
2023-01-02T20:26:59.571Z,9.44
2023-01-02T20:29:26.655Z,9.43
2023-01-02T20:31:53.434Z,9.38
2023-01-02T20:34:20.420Z,9.39
2023-01-02T20:36:46.996Z,9.33
2023-01-02T20:39:13.790Z,9.34
2023-01-02T20:41:40.483Z,9.32
2023-01-02T20:44:08.368Z,9.32
2023-01-02T20:46:35.401Z,9.31
2023-01-02T20:49:02.105Z,9.29
2023-01-02T20:51:30.235Z,9.28
2023-01-02T20:53:59.253Z,9.28
2023-01-02T20:56:26.299Z,9.26
2023-01-02T20:58:54.000Z,9.32
2023-01-02T21:01:21.219Z,9.30
2023-01-02T21:03:48.276Z,9.30
2023-01-02T21:06:14.851Z,9.28
2023-01-02T21:08:42.330Z,9.29
2023-01-02T21:11:08.813Z,9.28
2023-01-02T21:13:35.449Z,9.27
2023-01-02T21:16:02.054Z,9.32
2023-01-02T21:18:34.056Z,9.25
2023-01-02T21:21:05.616Z,9.26
2023-01-02T21:23:35.358Z,9.22
2023-01-02T21:26:02.341Z,9.20
2023-01-02T21:28:28.839Z,9.18
2023-01-02T21:30:55.554Z,9.17
2023-01-02T21:33:23.574Z,9.13
2023-01-02T21:35:51.540Z,9.10
2023-01-02T21:38:19.817Z,9.07
2023-01-02T21:40:46.341Z,9.07
2023-01-02T21:43:13.187Z,8.99
2023-01-02T21:45:43.020Z,8.95
2023-01-02T21:48:09.615Z,8.94
2023-01-02T21:50:36.188Z,8.89
2023-01-02T21:53:02.709Z,8.92
2023-01-02T21:55:29.214Z,8.92
2023-01-02T21:58:12.997Z,8.89
2023-01-02T22:00:41.722Z,8.88
2023-01-02T22:03:08.527Z,8.82
2023-01-02T22:05:35.165Z,8.74
2023-01-02T22:08:01.763Z,8.69
2023-01-02T22:10:28.396Z,8.69
2023-01-02T22:12:55.188Z,8.60
2023-01-02T22:15:24.977Z,8.58
2023-01-02T22:17:57.828Z,8.59
2023-01-02T22:20:24.281Z,8.58
2023-01-02T22:22:50.905Z,8.57
2023-01-02T22:25:17.482Z,8.56
2023-01-02T22:27:44.256Z,8.57
2023-01-02T22:30:23.027Z,8.58
2023-01-02T22:32:52.757Z,8.63
2023-01-02T22:35:19.326Z,8.68
2023-01-02T22:37:45.848Z,8.69
2023-01-02T22:40:12.728Z,8.67
2023-01-02T22:43:03.352Z,8.66
2023-01-02T22:45:38.498Z,8.64
2023-01-02T22:48:19.047Z,8.62
2023-01-02T22:50:46.688Z,8.61
2023-01-02T22:53:24.165Z,8.60
2023-01-02T22:55:50.907Z,8.58
2023-01-02T22:58:18.676Z,8.60
2023-01-02T23:00:47.610Z,8.61
2023-01-02T23:03:15.664Z,8.62
2023-01-02T23:05:42.722Z,8.60
2023-01-02T23:08:09.318Z,8.57
2023-01-02T23:10:35.957Z,8.54
2023-01-02T23:13:02.516Z,8.49
2023-01-02T23:15:29.127Z,8.44
2023-01-02T23:18:16.765Z,8.44
2023-01-02T23:20:46.824Z,8.46
2023-01-02T23:23:13.280Z,8.46
2023-01-02T23:25:42.529Z,8.48
2023-01-02T23:28:09.077Z,8.50
2023-01-02T23:30:35.592Z,8.48
2023-01-02T23:33:05.333Z,8.50
2023-01-02T23:35:31.783Z,8.52
2023-01-02T23:37:58.352Z,8.48
2023-01-02T23:40:27.174Z,8.50
2023-01-02T23:42:57.152Z,8.51
2023-01-02T23:45:23.618Z,8.57
2023-01-02T23:47:56.143Z,8.52
2023-01-02T23:50:22.660Z,8.50
2023-01-02T23:52:49.145Z,8.46
2023-01-02T23:55:15.688Z,8.43
2023-01-02T23:57:44.232Z,8.38
